< Typhoon 197410 1974 Season Typhoon 197412 >
Typhoon 197411 (JEAN)
General InformationTrack Information on Google Maps || Disaster Info.ResourceGoogle EarthGE AnimationAtom FeedGeoJSON
Detalied Best Track (Time Zone = UTC)
Year Month Day Hour Lat. Long. Pressure (hPa) Wind (kt) Class Image Chart
1974 7 14 12 16.1 132.9 1010 0 2 -- Chart
1974 7 14 18 16.6 132.3 1008 0 2 -- Chart
1974 7 15 00 17.3 131.5 1008 0 2 -- Chart
1974 7 15 06 17.5 130.7 1006 0 2 -- Chart
1974 7 15 12 17.5 130.0 1006 0 2 -- Chart
1974 7 15 18 17.6 129.6 1006 0 2 -- Chart
1974 7 16 00 17.7 129.3 1004 0 2 -- Chart
1974 7 16 06 18.1 128.9 1004 0 2 -- Chart
1974 7 16 12 18.7 128.2 1004 0 2 -- Chart
1974 7 16 18 19.2 127.7 1002 0 2 -- Chart
1974 7 17 00 19.6 127.2 1002 0 2 -- Chart
1974 7 17 06 20.0 126.6 1000 0 2 -- Chart
1974 7 17 12 20.2 126.4 1000 0 2 -- Chart
1974 7 17 18 20.7 125.6 1000 0 2 -- Chart
1974 7 18 00 21.4 125.0 998 0 9 -- Chart
1974 7 18 06 21.8 124.5 996 0 9 -- Chart
1974 7 18 12 22.1 123.9 994 0 9 -- Chart
1974 7 18 18 22.7 122.7 996 0 9 -- Chart
1974 7 19 00 23.8 122.4 996 0 9 -- Chart
1974 7 19 06 24.8 122.1 996 0 9 -- Chart
1974 7 19 12 26.4 121.7 996 0 9 -- Chart
1974 7 19 18 28.3 121.7 1000 0 9 -- Chart
1974 7 20 00 30.5 122.2 1000 0 2 -- Chart
1974 7 20 06 32.0 123.1 1000 0 2 -- Chart
1974 7 20 12 33.2 123.4 1002 0 2 -- Chart
1974 7 20 18 34.5 123.7 1004 0 2 -- Chart
1974 7 21 00 36.0 124.0 1006 0 2 -- Chart
Japan Meteorological Agency Best Track Data | Correction Date : 1989-06-01
< Typhoon 197410 1974 Season Typhoon 197412 >

Help